sensor_id;sensor_type;location;lat;lon;timestamp;P1;durP1;ratioP1;P2;durP2;ratioP2
1829;SDS011;914;48.118;11.600;2023-02-01T00:01:32;5.50;;;2.60;;
1829;SDS011;914;48.118;11.600;2023-02-01T00:03:57;3.30;;;2.60;;
1829;SDS011;914;48.118;11.600;2023-02-01T00:06:23;3.27;;;2.70;;
1829;SDS011;914;48.118;11.600;2023-02-01T00:08:51;3.07;;;2.60;;
1829;SDS011;914;48.118;11.600;2023-02-01T00:11:18;6.00;;;2.90;;
1829;SDS011;914;48.118;11.600;2023-02-01T00:13:43;4.23;;;2.60;;
1829;SDS011;914;48.118;11.600;2023-02-01T00:16:12;2.43;;;2.23;;
1829;SDS011;914;48.118;11.600;2023-02-01T00:18:42;3.93;;;2.87;;
1829;SDS011;914;48.118;11.600;2023-02-01T00:21:11;2.90;;;2.20;;
1829;SDS011;914;48.118;11.600;2023-02-01T00:23:39;2.40;;;2.03;;
1829;SDS011;914;48.118;11.600;2023-02-01T00:26:05;2.57;;;2.37;;
1829;SDS011;914;48.118;11.600;2023-02-01T00:28:32;3.73;;;2.60;;
1829;SDS011;914;48.118;11.600;2023-02-01T00:30:59;2.23;;;2.03;;
1829;SDS011;914;48.118;11.600;2023-02-01T00:33:27;2.57;;;2.20;;
1829;SDS011;914;48.118;11.600;2023-02-01T00:36:03;4.10;;;2.10;;
1829;SDS011;914;48.118;11.600;2023-02-01T00:38:31;4.17;;;2.40;;
1829;SDS011;914;48.118;11.600;2023-02-01T00:41:06;2.33;;;2.13;;
1829;SDS011;914;48.118;11.600;2023-02-01T00:43:37;2.40;;;2.20;;
1829;SDS011;914;48.118;11.600;2023-02-01T00:46:03;3.00;;;1.83;;
1829;SDS011;914;48.118;11.600;2023-02-01T00:48:29;2.53;;;2.07;;
1829;SDS011;914;48.118;11.600;2023-02-01T00:50:58;2.20;;;2.00;;
1829;SDS011;914;48.118;11.600;2023-02-01T00:53:28;3.93;;;2.27;;
1829;SDS011;914;48.118;11.600;2023-02-01T00:55:54;3.03;;;2.57;;
1829;SDS011;914;48.118;11.600;2023-02-01T00:58:21;3.70;;;2.90;;
1829;SDS011;914;48.118;11.600;2023-02-01T01:00:48;3.57;;;2.57;;
1829;SDS011;914;48.118;11.600;2023-02-01T01:03:15;3.30;;;2.63;;
1829;SDS011;914;48.118;11.600;2023-02-01T01:05:47;2.90;;;2.37;;
1829;SDS011;914;48.118;11.600;2023-02-01T01:08:14;3.00;;;2.73;;
1829;SDS011;914;48.118;11.600;2023-02-01T01:10:40;3.00;;;2.70;;
1829;SDS011;914;48.118;11.600;2023-02-01T01:13:07;3.63;;;2.90;;
1829;SDS011;914;48.118;11.600;2023-02-01T01:15:39;5.40;;;2.80;;
1829;SDS011;914;48.118;11.600;2023-02-01T01:18:05;4.57;;;3.40;;
1829;SDS011;914;48.118;11.600;2023-02-01T01:20:30;4.50;;;2.53;;
1829;SDS011;914;48.118;11.600;2023-02-01T01:22:59;3.40;;;2.57;;
1829;SDS011;914;48.118;11.600;2023-02-01T01:25:27;3.13;;;2.83;;
1829;SDS011;914;48.118;11.600;2023-02-01T01:27:53;6.47;;;3.40;;
1829;SDS011;914;48.118;11.600;2023-02-01T01:30:18;4.40;;;3.17;;
1829;SDS011;914;48.118;11.600;2023-02-01T01:32:44;4.93;;;3.23;;
1829;SDS011;914;48.118;11.600;2023-02-01T01:35:10;5.37;;;3.07;;
1829;SDS011;914;48.118;11.600;2023-02-01T01:37:36;3.73;;;3.10;;
1829;SDS011;914;48.118;11.600;2023-02-01T01:40:03;4.30;;;3.20;;
1829;SDS011;914;48.118;11.600;2023-02-01T01:42:39;3.50;;;3.13;;
1829;SDS011;914;48.118;11.600;2023-02-01T01:45:22;3.97;;;3.30;;
1829;SDS011;914;48.118;11.600;2023-02-01T01:48:02;3.20;;;2.90;;
1829;SDS011;914;48.118;11.600;2023-02-01T01:50:33;4.20;;;3.60;;
1829;SDS011;914;48.118;11.600;2023-02-01T01:53:08;4.73;;;4.13;;
1829;SDS011;914;48.118;11.600;2023-02-01T01:55:36;3.90;;;3.40;;
1829;SDS011;914;48.118;11.600;2023-02-01T01:58:08;5.63;;;4.13;;
1829;SDS011;914;48.118;11.600;2023-02-01T02:00:38;7.10;;;3.87;;
1829;SDS011;914;48.118;11.600;2023-02-01T02:03:09;5.70;;;4.10;;
1829;SDS011;914;48.118;11.600;2023-02-01T02:05:54;4.67;;;3.67;;
1829;SDS011;914;48.118;11.600;2023-02-01T02:08:22;4.50;;;3.73;;
1829;SDS011;914;48.118;11.600;2023-02-01T02:10:51;6.00;;;4.17;;
1829;SDS011;914;48.118;11.600;2023-02-01T02:13:27;5.40;;;4.60;;
1829;SDS011;914;48.118;11.600;2023-02-01T02:19:12;4.77;;;4.17;;
1829;SDS011;914;48.118;11.600;2023-02-01T02:24:57;7.33;;;4.30;;
1829;SDS011;914;48.118;11.600;2023-02-01T02:28:05;4.70;;;4.20;;
1829;SDS011;914;48.118;11.600;2023-02-01T02:31:04;4.77;;;4.00;;
1829;SDS011;914;48.118;11.600;2023-02-01T02:33:47;5.07;;;4.07;;
1829;SDS011;914;48.118;11.600;2023-02-01T02:36:37;4.57;;;4.00;;
1829;SDS011;914;48.118;11.600;2023-02-01T02:41:47;5.67;;;3.47;;
1829;SDS011;914;48.118;11.600;2023-02-01T02:44:46;4.83;;;3.80;;
1829;SDS011;914;48.118;11.600;2023-02-01T02:50:55;5.67;;;4.20;;
1829;SDS011;914;48.118;11.600;2023-02-01T02:56:53;5.37;;;3.70;;
1829;SDS011;914;48.118;11.600;2023-02-01T02:59:40;4.23;;;3.83;;
1829;SDS011;914;48.118;11.600;2023-02-01T03:02:26;4.20;;;3.80;;
1829;SDS011;914;48.118;11.600;2023-02-01T03:05:14;4.20;;;3.80;;
1829;SDS011;914;48.118;11.600;2023-02-01T03:13:01;3.57;;;3.27;;
1829;SDS011;914;48.118;11.600;2023-02-01T03:15:40;4.30;;;3.80;;
1829;SDS011;914;48.118;11.600;2023-02-01T03:18:13;4.10;;;3.50;;
1829;SDS011;914;48.118;11.600;2023-02-01T03:20:44;3.93;;;3.37;;
1829;SDS011;914;48.118;11.600;2023-02-01T03:23:16;3.97;;;3.57;;
1829;SDS011;914;48.118;11.600;2023-02-01T03:25:46;3.90;;;3.30;;
1829;SDS011;914;48.118;11.600;2023-02-01T03:28:14;4.67;;;3.60;;
1829;SDS011;914;48.118;11.600;2023-02-01T03:30:44;4.57;;;3.33;;
1829;SDS011;914;48.118;11.600;2023-02-01T03:33:15;3.80;;;3.40;;
1829;SDS011;914;48.118;11.600;2023-02-01T03:39:00;4.03;;;3.30;;
1829;SDS011;914;48.118;11.600;2023-02-01T03:47:19;4.97;;;3.47;;
1829;SDS011;914;48.118;11.600;2023-02-01T03:49:49;4.27;;;3.50;;
1829;SDS011;914;48.118;11.600;2023-02-01T03:52:51;4.53;;;3.63;;
1829;SDS011;914;48.118;11.600;2023-02-01T03:55:28;4.87;;;3.10;;
1829;SDS011;914;48.118;11.600;2023-02-01T04:00:27;4.87;;;3.40;;
1829;SDS011;914;48.118;11.600;2023-02-01T04:02:53;3.83;;;3.43;;
1829;SDS011;914;48.118;11.600;2023-02-01T04:05:22;4.10;;;3.30;;
1829;SDS011;914;48.118;11.600;2023-02-01T04:07:47;3.20;;;2.90;;
1829;SDS011;914;48.118;11.600;2023-02-01T04:10:13;3.37;;;2.90;;
1829;SDS011;914;48.118;11.600;2023-02-01T04:12:41;2.77;;;2.57;;
1829;SDS011;914;48.118;11.600;2023-02-01T04:15:07;3.97;;;3.23;;
1829;SDS011;914;48.118;11.600;2023-02-01T04:17:33;3.97;;;3.10;;
1829;SDS011;914;48.118;11.600;2023-02-01T04:19:59;3.23;;;2.70;;
1829;SDS011;914;48.118;11.600;2023-02-01T04:22:24;4.07;;;3.43;;
1829;SDS011;914;48.118;11.600;2023-02-01T04:24:50;2.73;;;2.50;;
1829;SDS011;914;48.118;11.600;2023-02-01T04:27:16;3.03;;;2.73;;
1829;SDS011;914;48.118;11.600;2023-02-01T04:29:41;5.03;;;3.30;;
1829;SDS011;914;48.118;11.600;2023-02-01T04:32:07;4.40;;;3.13;;
1829;SDS011;914;48.118;11.600;2023-02-01T04:34:33;4.40;;;3.23;;
1829;SDS011;914;48.118;11.600;2023-02-01T04:36:58;2.93;;;2.70;;
1829;SDS011;914;48.118;11.600;2023-02-01T04:39:24;4.33;;;3.43;;
1829;SDS011;914;48.118;11.600;2023-02-01T04:41:50;3.53;;;3.00;;
1829;SDS011;914;48.118;11.600;2023-02-01T04:44:16;3.70;;;3.13;;
1829;SDS011;914;48.118;11.600;2023-02-01T04:46:43;4.20;;;3.40;;
1829;SDS011;914;48.118;11.600;2023-02-01T04:49:13;5.73;;;3.47;;
1829;SDS011;914;48.118;11.600;2023-02-01T04:51:39;4.30;;;3.23;;
1829;SDS011;914;48.118;11.600;2023-02-01T04:54:06;3.97;;;3.30;;
1829;SDS011;914;48.118;11.600;2023-02-01T04:56:32;5.87;;;3.67;;
1829;SDS011;914;48.118;11.600;2023-02-01T04:59:00;3.07;;;2.80;;
1829;SDS011;914;48.118;11.600;2023-02-01T05:01:27;4.70;;;3.47;;
1829;SDS011;914;48.118;11.600;2023-02-01T05:03:53;6.47;;;3.23;;
1829;SDS011;914;48.118;11.600;2023-02-01T05:06:19;3.70;;;3.30;;
1829;SDS011;914;48.118;11.600;2023-02-01T05:08:45;4.17;;;3.17;;
1829;SDS011;914;48.118;11.600;2023-02-01T05:11:10;3.93;;;3.37;;
1829;SDS011;914;48.118;11.600;2023-02-01T05:13:56;3.80;;;3.37;;
1829;SDS011;914;48.118;11.600;2023-02-01T05:16:22;3.73;;;3.10;;
1829;SDS011;914;48.118;11.600;2023-02-01T05:18:47;7.13;;;3.70;;
1829;SDS011;914;48.118;11.600;2023-02-01T05:21:13;4.60;;;3.80;;
1829;SDS011;914;48.118;11.600;2023-02-01T05:23:39;3.50;;;3.17;;
1829;SDS011;914;48.118;11.600;2023-02-01T05:26:24;3.63;;;3.23;;
1829;SDS011;914;48.118;11.600;2023-02-01T05:28:50;4.27;;;3.30;;
1829;SDS011;914;48.118;11.600;2023-02-01T05:31:16;4.07;;;3.53;;
1829;SDS011;914;48.118;11.600;2023-02-01T05:33:44;4.40;;;4.00;;
1829;SDS011;914;48.118;11.600;2023-02-01T05:36:09;4.90;;;3.70;;
1829;SDS011;914;48.118;11.600;2023-02-01T05:38:35;4.37;;;3.53;;
1829;SDS011;914;48.118;11.600;2023-02-01T05:41:00;4.63;;;4.13;;
1829;SDS011;914;48.118;11.600;2023-02-01T05:43:26;5.47;;;3.80;;
1829;SDS011;914;48.118;11.600;2023-02-01T05:45:52;4.80;;;3.90;;
1829;SDS011;914;48.118;11.600;2023-02-01T05:48:18;6.17;;;3.80;;
1829;SDS011;914;48.118;11.600;2023-02-01T05:50:44;4.50;;;3.77;;
1829;SDS011;914;48.118;11.600;2023-02-01T05:53:09;3.33;;;3.00;;
1829;SDS011;914;48.118;11.600;2023-02-01T05:55:35;6.23;;;4.13;;
1829;SDS011;914;48.118;11.600;2023-02-01T05:58:02;4.87;;;3.77;;
1829;SDS011;914;48.118;11.600;2023-02-01T06:00:28;4.83;;;3.70;;
1829;SDS011;914;48.118;11.600;2023-02-01T06:02:54;4.10;;;3.70;;
1829;SDS011;914;48.118;11.600;2023-02-01T06:05:20;4.07;;;3.40;;
1829;SDS011;914;48.118;11.600;2023-02-01T06:07:46;3.87;;;3.47;;
1829;SDS011;914;48.118;11.600;2023-02-01T06:10:12;5.00;;;3.67;;
1829;SDS011;914;48.118;11.600;2023-02-01T06:12:38;4.80;;;3.37;;
1829;SDS011;914;48.118;11.600;2023-02-01T06:15:04;4.40;;;3.70;;
1829;SDS011;914;48.118;11.600;2023-02-01T06:17:30;4.53;;;3.80;;
1829;SDS011;914;48.118;11.600;2023-02-01T06:19:56;3.93;;;3.50;;
1829;SDS011;914;48.118;11.600;2023-02-01T06:22:21;5.30;;;3.93;;
1829;SDS011;914;48.118;11.600;2023-02-01T06:24:47;5.87;;;3.97;;
1829;SDS011;914;48.118;11.600;2023-02-01T06:27:14;9.60;;;4.13;;
1829;SDS011;914;48.118;11.600;2023-02-01T06:29:40;5.33;;;3.63;;
1829;SDS011;914;48.118;11.600;2023-02-01T06:32:06;4.50;;;3.60;;
1829;SDS011;914;48.118;11.600;2023-02-01T06:34:32;5.13;;;3.80;;
1829;SDS011;914;48.118;11.600;2023-02-01T06:37:00;6.13;;;4.10;;
1829;SDS011;914;48.118;11.600;2023-02-01T06:39:26;5.50;;;3.87;;
1829;SDS011;914;48.118;11.600;2023-02-01T06:41:53;4.60;;;3.90;;
1829;SDS011;914;48.118;11.600;2023-02-01T06:44:19;4.73;;;3.17;;
1829;SDS011;914;48.118;11.600;2023-02-01T06:46:46;4.53;;;3.63;;
1829;SDS011;914;48.118;11.600;2023-02-01T06:49:11;4.70;;;3.77;;
1829;SDS011;914;48.118;11.600;2023-02-01T06:51:37;5.33;;;3.30;;
1829;SDS011;914;48.118;11.600;2023-02-01T06:54:02;4.87;;;4.10;;
1829;SDS011;914;48.118;11.600;2023-02-01T06:56:28;3.87;;;3.47;;
1829;SDS011;914;48.118;11.600;2023-02-01T06:58:56;3.97;;;3.40;;
1829;SDS011;914;48.118;11.600;2023-02-01T07:01:22;4.07;;;3.47;;
1829;SDS011;914;48.118;11.600;2023-02-01T07:03:50;6.73;;;3.40;;
1829;SDS011;914;48.118;11.600;2023-02-01T07:06:16;3.90;;;3.10;;
1829;SDS011;914;48.118;11.600;2023-02-01T07:08:43;4.43;;;3.20;;
1829;SDS011;914;48.118;11.600;2023-02-01T07:11:10;3.50;;;3.20;;
1829;SDS011;914;48.118;11.600;2023-02-01T07:13:37;3.83;;;3.07;;
1829;SDS011;914;48.118;11.600;2023-02-01T07:16:05;3.33;;;3.03;;
1829;SDS011;914;48.118;11.600;2023-02-01T07:18:33;5.00;;;3.07;;
1829;SDS011;914;48.118;11.600;2023-02-01T07:20:59;3.53;;;3.00;;
1829;SDS011;914;48.118;11.600;2023-02-01T07:23:25;2.97;;;2.67;;
1829;SDS011;914;48.118;11.600;2023-02-01T07:25:55;3.70;;;3.13;;
1829;SDS011;914;48.118;11.600;2023-02-01T07:28:22;3.20;;;2.67;;
1829;SDS011;914;48.118;11.600;2023-02-01T07:30:48;3.33;;;3.03;;
1829;SDS011;914;48.118;11.600;2023-02-01T07:33:22;3.47;;;3.17;;
1829;SDS011;914;48.118;11.600;2023-02-01T07:35:50;3.50;;;2.33;;
1829;SDS011;914;48.118;11.600;2023-02-01T07:38:16;4.53;;;2.90;;
1829;SDS011;914;48.118;11.600;2023-02-01T07:40:42;3.03;;;2.60;;
1829;SDS011;914;48.118;11.600;2023-02-01T07:43:08;2.50;;;2.30;;
1829;SDS011;914;48.118;11.600;2023-02-01T07:45:35;2.80;;;2.50;;
1829;SDS011;914;48.118;11.600;2023-02-01T07:48:01;3.30;;;2.40;;
1829;SDS011;914;48.118;11.600;2023-02-01T07:50:27;5.37;;;2.47;;
1829;SDS011;914;48.118;11.600;2023-02-01T07:52:53;2.80;;;2.43;;
1829;SDS011;914;48.118;11.600;2023-02-01T07:55:19;2.40;;;2.10;;
1829;SDS011;914;48.118;11.600;2023-02-01T07:57:46;2.97;;;2.23;;
1829;SDS011;914;48.118;11.600;2023-02-01T08:00:12;2.50;;;2.23;;
1829;SDS011;914;48.118;11.600;2023-02-01T08:03:00;2.67;;;2.47;;
1829;SDS011;914;48.118;11.600;2023-02-01T08:05:26;3.90;;;2.63;;
1829;SDS011;914;48.118;11.600;2023-02-01T08:07:52;3.17;;;2.47;;
1829;SDS011;914;48.118;11.600;2023-02-01T08:10:18;2.70;;;2.10;;
1829;SDS011;914;48.118;11.600;2023-02-01T08:12:44;2.70;;;1.90;;
1829;SDS011;914;48.118;11.600;2023-02-01T08:15:14;3.23;;;2.10;;
1829;SDS011;914;48.118;11.600;2023-02-01T08:17:45;3.13;;;2.10;;
1829;SDS011;914;48.118;11.600;2023-02-01T08:20:12;2.40;;;2.20;;
1829;SDS011;914;48.118;11.600;2023-02-01T08:22:38;2.47;;;2.10;;
1829;SDS011;914;48.118;11.600;2023-02-01T08:25:04;3.93;;;2.03;;
1829;SDS011;914;48.118;11.600;2023-02-01T08:27:32;2.97;;;2.00;;
1829;SDS011;914;48.118;11.600;2023-02-01T08:29:58;2.50;;;2.17;;
1829;SDS011;914;48.118;11.600;2023-02-01T08:32:24;7.10;;;1.97;;
1829;SDS011;914;48.118;11.600;2023-02-01T08:34:50;1.90;;;1.80;;
1829;SDS011;914;48.118;11.600;2023-02-01T08:37:16;2.60;;;2.00;;
1829;SDS011;914;48.118;11.600;2023-02-01T08:39:42;2.80;;;2.03;;
1829;SDS011;914;48.118;11.600;2023-02-01T08:42:09;4.00;;;1.70;;
1829;SDS011;914;48.118;11.600;2023-02-01T08:44:54;2.67;;;2.00;;
1829;SDS011;914;48.118;11.600;2023-02-01T08:47:20;2.10;;;1.97;;
1829;SDS011;914;48.118;11.600;2023-02-01T08:49:45;4.03;;;2.00;;
1829;SDS011;914;48.118;11.600;2023-02-01T08:52:11;2.40;;;2.20;;
1829;SDS011;914;48.118;11.600;2023-02-01T08:54:37;5.97;;;2.30;;
1829;SDS011;914;48.118;11.600;2023-02-01T08:57:04;2.10;;;1.90;;
1829;SDS011;914;48.118;11.600;2023-02-01T08:59:30;2.50;;;2.30;;
1829;SDS011;914;48.118;11.600;2023-02-01T09:01:55;2.23;;;2.03;;
1829;SDS011;914;48.118;11.600;2023-02-01T09:04:21;2.53;;;2.00;;
1829;SDS011;914;48.118;11.600;2023-02-01T09:06:46;2.90;;;2.30;;
1829;SDS011;914;48.118;11.600;2023-02-01T09:09:12;3.80;;;2.23;;
1829;SDS011;914;48.118;11.600;2023-02-01T09:11:38;2.73;;;2.30;;
1829;SDS011;914;48.118;11.600;2023-02-01T09:14:03;4.37;;;2.47;;
1829;SDS011;914;48.118;11.600;2023-02-01T09:16:29;2.50;;;2.30;;
1829;SDS011;914;48.118;11.600;2023-02-01T09:18:55;2.10;;;1.90;;
1829;SDS011;914;48.118;11.600;2023-02-01T09:21:20;2.20;;;2.00;;
1829;SDS011;914;48.118;11.600;2023-02-01T09:23:46;2.20;;;2.00;;
1829;SDS011;914;48.118;11.600;2023-02-01T09:26:13;2.33;;;2.10;;
1829;SDS011;914;48.118;11.600;2023-02-01T09:28:40;2.73;;;2.20;;
1829;SDS011;914;48.118;11.600;2023-02-01T09:31:05;4.80;;;2.27;;
1829;SDS011;914;48.118;11.600;2023-02-01T09:33:31;2.10;;;1.70;;
1829;SDS011;914;48.118;11.600;2023-02-01T09:36:00;2.27;;;2.07;;
1829;SDS011;914;48.118;11.600;2023-02-01T09:38:28;4.83;;;2.57;;
1829;SDS011;914;48.118;11.600;2023-02-01T09:40:55;2.57;;;2.03;;
1829;SDS011;914;48.118;11.600;2023-02-01T09:46:26;4.33;;;2.20;;
1829;SDS011;914;48.118;11.600;2023-02-01T09:48:54;2.20;;;2.00;;
1829;SDS011;914;48.118;11.600;2023-02-01T09:51:30;3.47;;;2.40;;
1829;SDS011;914;48.118;11.600;2023-02-01T09:56:58;3.20;;;2.03;;
1829;SDS011;914;48.118;11.600;2023-02-01T09:59:40;3.00;;;2.07;;
1829;SDS011;914;48.118;11.600;2023-02-01T10:02:16;3.43;;;2.00;;
1829;SDS011;914;48.118;11.600;2023-02-01T10:04:44;2.67;;;2.00;;
1829;SDS011;914;48.118;11.600;2023-02-01T10:10:28;3.40;;;2.13;;
1829;SDS011;914;48.118;11.600;2023-02-01T10:16:30;5.03;;;2.30;;
1829;SDS011;914;48.118;11.600;2023-02-01T10:19:17;2.10;;;1.90;;
1829;SDS011;914;48.118;11.600;2023-02-01T10:21:52;2.40;;;2.17;;
1829;SDS011;914;48.118;11.600;2023-02-01T10:27:11;5.27;;;2.40;;
1829;SDS011;914;48.118;11.600;2023-02-01T10:29:38;2.70;;;2.07;;
1829;SDS011;914;48.118;11.600;2023-02-01T10:32:14;4.97;;;2.50;;
1829;SDS011;914;48.118;11.600;2023-02-01T10:34:48;4.37;;;2.03;;
1829;SDS011;914;48.118;11.600;2023-02-01T10:37:31;5.00;;;2.30;;
1829;SDS011;914;48.118;11.600;2023-02-01T10:40:00;2.83;;;1.97;;
1829;SDS011;914;48.118;11.600;2023-02-01T10:42:38;1.70;;;1.60;;
1829;SDS011;914;48.118;11.600;2023-02-01T10:45:05;3.27;;;2.23;;
1829;SDS011;914;48.118;11.600;2023-02-01T10:47:32;5.50;;;2.27;;
1829;SDS011;914;48.118;11.600;2023-02-01T10:55:28;2.10;;;1.90;;
1829;SDS011;914;48.118;11.600;2023-02-01T11:06:26;2.23;;;2.03;;
1829;SDS011;914;48.118;11.600;2023-02-01T11:11:32;3.63;;;2.37;;
1829;SDS011;914;48.118;11.600;2023-02-01T11:14:00;2.57;;;2.23;;
1829;SDS011;914;48.118;11.600;2023-02-01T11:16:37;3.20;;;2.50;;
1829;SDS011;914;48.118;11.600;2023-02-01T11:19:04;3.40;;;2.47;;
1829;SDS011;914;48.118;11.600;2023-02-01T11:21:31;2.60;;;2.10;;
1829;SDS011;914;48.118;11.600;2023-02-01T11:24:01;3.70;;;2.27;;
1829;SDS011;914;48.118;11.600;2023-02-01T11:26:28;2.63;;;2.43;;
1829;SDS011;914;48.118;11.600;2023-02-01T11:28:59;4.40;;;2.37;;
1829;SDS011;914;48.118;11.600;2023-02-01T11:31:30;3.03;;;2.37;;
1829;SDS011;914;48.118;11.600;2023-02-01T11:33:59;3.13;;;2.33;;
1829;SDS011;914;48.118;11.600;2023-02-01T11:36:55;2.47;;;2.27;;
1829;SDS011;914;48.118;11.600;2023-02-01T11:39:26;4.37;;;2.73;;
1829;SDS011;914;48.118;11.600;2023-02-01T11:42:00;3.43;;;2.40;;
1829;SDS011;914;48.118;11.600;2023-02-01T11:44:30;6.20;;;2.53;;
1829;SDS011;914;48.118;11.600;2023-02-01T11:49:52;3.00;;;2.63;;
1829;SDS011;914;48.118;11.600;2023-02-01T11:52:26;2.77;;;2.50;;
1829;SDS011;914;48.118;11.600;2023-02-01T11:57:37;2.60;;;2.20;;
1829;SDS011;914;48.118;11.600;2023-02-01T12:03:11;4.17;;;2.33;;
1829;SDS011;914;48.118;11.600;2023-02-01T12:05:59;7.60;;;2.77;;
1829;SDS011;914;48.118;11.600;2023-02-01T12:11:36;5.10;;;2.83;;
1829;SDS011;914;48.118;11.600;2023-02-01T12:14:23;3.37;;;2.60;;
1829;SDS011;914;48.118;11.600;2023-02-01T12:37:05;5.20;;;2.20;;
1829;SDS011;914;48.118;11.600;2023-02-01T12:39:43;3.90;;;2.70;;
1829;SDS011;914;48.118;11.600;2023-02-01T12:42:22;5.47;;;2.47;;
1829;SDS011;914;48.118;11.600;2023-02-01T12:45:11;4.23;;;2.43;;
1829;SDS011;914;48.118;11.600;2023-02-01T12:47:57;4.10;;;2.67;;
1829;SDS011;914;48.118;11.600;2023-02-01T12:50:34;4.50;;;2.60;;
1829;SDS011;914;48.118;11.600;2023-02-01T12:53:18;5.97;;;2.50;;
1829;SDS011;914;48.118;11.600;2023-02-01T12:55:51;4.90;;;2.47;;
1829;SDS011;914;48.118;11.600;2023-02-01T12:58:26;7.07;;;2.40;;
1829;SDS011;914;48.118;11.600;2023-02-01T13:01:11;4.67;;;2.40;;
1829;SDS011;914;48.118;11.600;2023-02-01T13:03:41;4.00;;;2.03;;
1829;SDS011;914;48.118;11.600;2023-02-01T13:06:28;14.00;;;3.00;;
1829;SDS011;914;48.118;11.600;2023-02-01T13:14:00;3.70;;;2.10;;
1829;SDS011;914;48.118;11.600;2023-02-01T13:16:45;4.30;;;2.23;;
1829;SDS011;914;48.118;11.600;2023-02-01T13:19:20;6.40;;;2.10;;
1829;SDS011;914;48.118;11.600;2023-02-01T13:22:02;5.10;;;2.20;;
1829;SDS011;914;48.118;11.600;2023-02-01T13:24:38;6.00;;;2.30;;
1829;SDS011;914;48.118;11.600;2023-02-01T13:27:11;3.57;;;2.13;;
1829;SDS011;914;48.118;11.600;2023-02-01T13:29:40;3.07;;;2.17;;
1829;SDS011;914;48.118;11.600;2023-02-01T13:38:05;4.83;;;2.57;;
1829;SDS011;914;48.118;11.600;2023-02-01T13:41:09;4.33;;;2.40;;
1829;SDS011;914;48.118;11.600;2023-02-01T13:43:49;2.90;;;2.40;;
1829;SDS011;914;48.118;11.600;2023-02-01T13:46:17;3.30;;;2.60;;
1829;SDS011;914;48.118;11.600;2023-02-01T13:48:49;2.63;;;2.00;;
1829;SDS011;914;48.118;11.600;2023-02-01T13:51:15;5.07;;;2.50;;
1829;SDS011;914;48.118;11.600;2023-02-01T13:53:57;3.67;;;2.40;;
1829;SDS011;914;48.118;11.600;2023-02-01T13:56:23;6.73;;;2.60;;
1829;SDS011;914;48.118;11.600;2023-02-01T13:58:50;2.53;;;2.27;;
1829;SDS011;914;48.118;11.600;2023-02-01T14:03:51;3.40;;;2.33;;
1829;SDS011;914;48.118;11.600;2023-02-01T14:16:43;5.13;;;2.33;;
1829;SDS011;914;48.118;11.600;2023-02-01T14:19:29;2.13;;;1.93;;
1829;SDS011;914;48.118;11.600;2023-02-01T14:21:58;3.73;;;2.10;;
1829;SDS011;914;48.118;11.600;2023-02-01T14:24:32;3.87;;;2.50;;
1829;SDS011;914;48.118;11.600;2023-02-01T14:27:21;3.13;;;2.23;;
1829;SDS011;914;48.118;11.600;2023-02-01T14:29:51;4.23;;;2.20;;
1829;SDS011;914;48.118;11.600;2023-02-01T14:32:39;7.70;;;2.20;;
1829;SDS011;914;48.118;11.600;2023-02-01T14:35:12;3.53;;;1.83;;
1829;SDS011;914;48.118;11.600;2023-02-01T14:37:44;4.73;;;1.70;;
1829;SDS011;914;48.118;11.600;2023-02-01T14:53:01;2.87;;;2.20;;
1829;SDS011;914;48.118;11.600;2023-02-01T15:03:50;4.77;;;2.20;;
1829;SDS011;914;48.118;11.600;2023-02-01T15:14:48;5.20;;;2.10;;
1829;SDS011;914;48.118;11.600;2023-02-01T15:17:34;4.07;;;2.10;;
1829;SDS011;914;48.118;11.600;2023-02-01T15:20:14;2.87;;;1.80;;
1829;SDS011;914;48.118;11.600;2023-02-01T15:22:43;4.03;;;1.93;;
1829;SDS011;914;48.118;11.600;2023-02-01T15:25:34;2.30;;;2.00;;
1829;SDS011;914;48.118;11.600;2023-02-01T15:28:03;2.43;;;1.73;;
1829;SDS011;914;48.118;11.600;2023-02-01T15:30:32;3.50;;;2.17;;
1829;SDS011;914;48.118;11.600;2023-02-01T15:41:04;1.83;;;1.70;;
1829;SDS011;914;48.118;11.600;2023-02-01T15:43:31;2.40;;;1.47;;
1829;SDS011;914;48.118;11.600;2023-02-01T15:46:01;3.27;;;2.00;;
1829;SDS011;914;48.118;11.600;2023-02-01T15:48:36;4.13;;;1.90;;
1829;SDS011;914;48.118;11.600;2023-02-01T15:51:17;7.23;;;1.60;;
1829;SDS011;914;48.118;11.600;2023-02-01T15:53:51;2.90;;;1.80;;
1829;SDS011;914;48.118;11.600;2023-02-01T15:56:21;4.03;;;2.40;;
1829;SDS011;914;48.118;11.600;2023-02-01T15:58:56;3.67;;;2.17;;
1829;SDS011;914;48.118;11.600;2023-02-01T16:01:24;3.90;;;2.33;;
1829;SDS011;914;48.118;11.600;2023-02-01T16:04:01;4.43;;;2.20;;
1829;SDS011;914;48.118;11.600;2023-02-01T16:09:53;1.93;;;1.73;;
1829;SDS011;914;48.118;11.600;2023-02-01T16:12:26;3.80;;;1.47;;
1829;SDS011;914;48.118;11.600;2023-02-01T16:15:01;5.10;;;2.07;;
1829;SDS011;914;48.118;11.600;2023-02-01T16:17:27;6.30;;;2.00;;
1829;SDS011;914;48.118;11.600;2023-02-01T16:19:52;4.40;;;1.90;;
1829;SDS011;914;48.118;11.600;2023-02-01T16:22:18;3.53;;;1.73;;
1829;SDS011;914;48.118;11.600;2023-02-01T16:24:44;3.27;;;1.97;;
1829;SDS011;914;48.118;11.600;2023-02-01T16:27:10;4.70;;;1.73;;
1829;SDS011;914;48.118;11.600;2023-02-01T16:29:35;4.60;;;1.80;;
1829;SDS011;914;48.118;11.600;2023-02-01T16:32:01;6.33;;;2.37;;
1829;SDS011;914;48.118;11.600;2023-02-01T16:34:30;5.67;;;1.97;;
1829;SDS011;914;48.118;11.600;2023-02-01T16:36:56;8.20;;;2.57;;
1829;SDS011;914;48.118;11.600;2023-02-01T16:39:22;4.20;;;1.83;;
1829;SDS011;914;48.118;11.600;2023-02-01T16:41:50;2.83;;;1.90;;
1829;SDS011;914;48.118;11.600;2023-02-01T16:44:17;4.23;;;1.77;;
1829;SDS011;914;48.118;11.600;2023-02-01T16:46:43;4.10;;;1.87;;
1829;SDS011;914;48.118;11.600;2023-02-01T16:49:25;3.23;;;1.80;;
1829;SDS011;914;48.118;11.600;2023-02-01T16:51:51;4.83;;;2.20;;
1829;SDS011;914;48.118;11.600;2023-02-01T16:54:21;2.00;;;1.50;;
1829;SDS011;914;48.118;11.600;2023-02-01T16:56:46;7.37;;;2.30;;
1829;SDS011;914;48.118;11.600;2023-02-01T16:59:12;3.23;;;1.87;;
1829;SDS011;914;48.118;11.600;2023-02-01T17:01:39;7.37;;;2.40;;
1829;SDS011;914;48.118;11.600;2023-02-01T17:04:08;4.83;;;2.10;;
1829;SDS011;914;48.118;11.600;2023-02-01T17:06:35;6.50;;;2.67;;
1829;SDS011;914;48.118;11.600;2023-02-01T17:09:02;6.57;;;2.30;;
1829;SDS011;914;48.118;11.600;2023-02-01T17:11:30;4.37;;;2.00;;
1829;SDS011;914;48.118;11.600;2023-02-01T17:14:16;4.87;;;2.33;;
1829;SDS011;914;48.118;11.600;2023-02-01T17:16:44;4.67;;;1.70;;
1829;SDS011;914;48.118;11.600;2023-02-01T17:19:16;3.67;;;1.53;;
1829;SDS011;914;48.118;11.600;2023-02-01T17:21:45;8.10;;;2.03;;
1829;SDS011;914;48.118;11.600;2023-02-01T17:24:13;4.17;;;1.70;;
1829;SDS011;914;48.118;11.600;2023-02-01T17:26:41;2.27;;;1.53;;
1829;SDS011;914;48.118;11.600;2023-02-01T17:29:07;6.90;;;2.37;;
1829;SDS011;914;48.118;11.600;2023-02-01T17:31:35;6.17;;;2.33;;
1829;SDS011;914;48.118;11.600;2023-02-01T17:34:03;9.70;;;2.37;;
1829;SDS011;914;48.118;11.600;2023-02-01T17:36:29;4.03;;;1.87;;
1829;SDS011;914;48.118;11.600;2023-02-01T17:38:55;4.97;;;1.77;;
1829;SDS011;914;48.118;11.600;2023-02-01T17:41:21;4.30;;;2.23;;
1829;SDS011;914;48.118;11.600;2023-02-01T17:43:47;4.07;;;1.77;;
1829;SDS011;914;48.118;11.600;2023-02-01T17:46:16;5.70;;;1.97;;
1829;SDS011;914;48.118;11.600;2023-02-01T17:48:49;4.57;;;2.17;;
1829;SDS011;914;48.118;11.600;2023-02-01T17:51:19;5.40;;;2.17;;
1829;SDS011;914;48.118;11.600;2023-02-01T17:53:47;3.40;;;1.83;;
1829;SDS011;914;48.118;11.600;2023-02-01T17:56:16;7.00;;;2.40;;
1829;SDS011;914;48.118;11.600;2023-02-01T17:58:45;5.03;;;2.00;;
1829;SDS011;914;48.118;11.600;2023-02-01T18:01:17;7.53;;;1.90;;
1829;SDS011;914;48.118;11.600;2023-02-01T18:03:47;5.20;;;2.10;;
1829;SDS011;914;48.118;11.600;2023-02-01T18:06:18;5.83;;;2.50;;
1829;SDS011;914;48.118;11.600;2023-02-01T18:08:48;5.97;;;2.00;;
1829;SDS011;914;48.118;11.600;2023-02-01T18:11:18;5.70;;;1.93;;
1829;SDS011;914;48.118;11.600;2023-02-01T18:13:46;7.50;;;1.97;;
1829;SDS011;914;48.118;11.600;2023-02-01T18:16:19;8.27;;;2.10;;